sensor_id;sensor_type;location;lat;lon;timestamp;P1;durP1;ratioP1;P2;durP2;ratioP2
29568;SDS011;16501;51.462;14.346;2022-09-03T00:00:57;10.50;;;1.63;;
29568;SDS011;16501;51.462;14.346;2022-09-03T00:03:39;3.38;;;1.60;;
29568;SDS011;16501;51.462;14.346;2022-09-03T00:06:16;4.20;;;1.80;;
29568;SDS011;16501;51.462;14.346;2022-09-03T00:08:54;5.90;;;2.10;;
29568;SDS011;16501;51.462;14.346;2022-09-03T00:11:25;8.27;;;1.60;;
29568;SDS011;16501;51.462;14.346;2022-09-03T00:13:58;4.55;;;2.38;;
29568;SDS011;16501;51.462;14.346;2022-09-03T00:16:33;4.25;;;2.10;;
29568;SDS011;16501;51.462;14.346;2022-09-03T00:19:08;6.47;;;1.95;;
29568;SDS011;16501;51.462;14.346;2022-09-03T00:21:38;2.20;;;1.50;;
29568;SDS011;16501;51.462;14.346;2022-09-03T00:26:44;3.65;;;1.67;;
29568;SDS011;16501;51.462;14.346;2022-09-03T00:29:16;5.35;;;1.70;;
29568;SDS011;16501;51.462;14.346;2022-09-03T00:31:50;4.28;;;1.75;;
29568;SDS011;16501;51.462;14.346;2022-09-03T00:34:23;4.40;;;1.55;;
29568;SDS011;16501;51.462;14.346;2022-09-03T00:36:53;2.75;;;1.73;;
29568;SDS011;16501;51.462;14.346;2022-09-03T00:39:20;5.07;;;2.03;;
29568;SDS011;16501;51.462;14.346;2022-09-03T00:42:10;4.82;;;1.40;;
29568;SDS011;16501;51.462;14.346;2022-09-03T00:44:58;7.18;;;1.67;;
29568;SDS011;16501;51.462;14.346;2022-09-03T00:50:24;6.00;;;1.80;;
29568;SDS011;16501;51.462;14.346;2022-09-03T01:01:27;3.63;;;1.63;;
29568;SDS011;16501;51.462;14.346;2022-09-03T01:06:58;7.15;;;2.28;;
29568;SDS011;16501;51.462;14.346;2022-09-03T01:09:42;6.28;;;1.63;;
29568;SDS011;16501;51.462;14.346;2022-09-03T01:12:18;6.47;;;1.98;;
29568;SDS011;16501;51.462;14.346;2022-09-03T01:15:16;6.45;;;2.22;;
29568;SDS011;16501;51.462;14.346;2022-09-03T01:18:03;4.32;;;1.60;;
29568;SDS011;16501;51.462;14.346;2022-09-03T01:21:02;2.30;;;1.73;;
29568;SDS011;16501;51.462;14.346;2022-09-03T01:32:01;7.97;;;1.90;;
29568;SDS011;16501;51.462;14.346;2022-09-03T01:34:49;6.53;;;1.80;;
29568;SDS011;16501;51.462;14.346;2022-09-03T01:37:26;4.60;;;1.48;;
29568;SDS011;16501;51.462;14.346;2022-09-03T01:40:17;3.38;;;1.77;;
29568;SDS011;16501;51.462;14.346;2022-09-03T01:45:46;3.80;;;1.65;;
29568;SDS011;16501;51.462;14.346;2022-09-03T01:59:21;7.35;;;1.80;;
29568;SDS011;16501;51.462;14.346;2022-09-03T02:01:52;4.30;;;1.60;;
29568;SDS011;16501;51.462;14.346;2022-09-03T02:06:50;3.17;;;1.58;;
29568;SDS011;16501;51.462;14.346;2022-09-03T02:09:17;6.45;;;2.10;;
29568;SDS011;16501;51.462;14.346;2022-09-03T02:11:43;4.65;;;1.95;;
29568;SDS011;16501;51.462;14.346;2022-09-03T02:14:13;7.53;;;2.30;;
29568;SDS011;16501;51.462;14.346;2022-09-03T02:16:39;4.80;;;1.92;;
29568;SDS011;16501;51.462;14.346;2022-09-03T02:19:05;4.22;;;1.95;;
29568;SDS011;16501;51.462;14.346;2022-09-03T02:21:35;4.60;;;1.80;;
29568;SDS011;16501;51.462;14.346;2022-09-03T02:24:04;5.85;;;1.98;;
29568;SDS011;16501;51.462;14.346;2022-09-03T02:26:32;2.58;;;1.65;;
29568;SDS011;16501;51.462;14.346;2022-09-03T02:28:58;3.03;;;1.33;;
29568;SDS011;16501;51.462;14.346;2022-09-03T02:31:25;4.50;;;2.10;;
29568;SDS011;16501;51.462;14.346;2022-09-03T02:33:51;4.70;;;1.70;;
29568;SDS011;16501;51.462;14.346;2022-09-03T02:36:18;4.72;;;1.60;;
29568;SDS011;16501;51.462;14.346;2022-09-03T02:38:46;5.43;;;1.48;;
29568;SDS011;16501;51.462;14.346;2022-09-03T02:41:11;5.15;;;1.67;;
29568;SDS011;16501;51.462;14.346;2022-09-03T02:43:46;6.43;;;1.98;;
29568;SDS011;16501;51.462;14.346;2022-09-03T02:46:17;2.92;;;1.67;;
29568;SDS011;16501;51.462;14.346;2022-09-03T02:48:46;4.53;;;1.83;;
29568;SDS011;16501;51.462;14.346;2022-09-03T02:51:12;5.20;;;2.10;;
29568;SDS011;16501;51.462;14.346;2022-09-03T02:53:37;2.30;;;1.92;;
29568;SDS011;16501;51.462;14.346;2022-09-03T02:56:03;3.80;;;2.10;;
29568;SDS011;16501;51.462;14.346;2022-09-03T02:58:29;6.72;;;1.70;;
29568;SDS011;16501;51.462;14.346;2022-09-03T03:00:55;5.93;;;2.08;;
29568;SDS011;16501;51.462;14.346;2022-09-03T03:03:21;5.60;;;1.80;;
29568;SDS011;16501;51.462;14.346;2022-09-03T03:05:51;4.55;;;2.00;;
29568;SDS011;16501;51.462;14.346;2022-09-03T03:08:19;5.85;;;1.77;;
29568;SDS011;16501;51.462;14.346;2022-09-03T03:10:47;5.75;;;1.67;;
29568;SDS011;16501;51.462;14.346;2022-09-03T03:13:13;4.20;;;2.00;;
29568;SDS011;16501;51.462;14.346;2022-09-03T03:15:39;3.13;;;1.88;;
29568;SDS011;16501;51.462;14.346;2022-09-03T03:18:04;3.75;;;2.03;;
29568;SDS011;16501;51.462;14.346;2022-09-03T03:20:31;7.07;;;1.98;;
29568;SDS011;16501;51.462;14.346;2022-09-03T03:22:56;3.13;;;1.83;;
29568;SDS011;16501;51.462;14.346;2022-09-03T03:25:22;5.82;;;2.22;;
29568;SDS011;16501;51.462;14.346;2022-09-03T03:27:47;3.22;;;1.92;;
29568;SDS011;16501;51.462;14.346;2022-09-03T03:30:12;5.45;;;1.60;;
29568;SDS011;16501;51.462;14.346;2022-09-03T03:32:38;6.97;;;2.00;;
29568;SDS011;16501;51.462;14.346;2022-09-03T03:35:04;6.63;;;1.98;;
29568;SDS011;16501;51.462;14.346;2022-09-03T03:37:30;7.28;;;2.13;;
29568;SDS011;16501;51.462;14.346;2022-09-03T03:39:56;5.40;;;1.88;;
29568;SDS011;16501;51.462;14.346;2022-09-03T03:42:21;3.17;;;1.70;;
29568;SDS011;16501;51.462;14.346;2022-09-03T03:44:46;5.95;;;2.03;;
29568;SDS011;16501;51.462;14.346;2022-09-03T03:47:12;3.05;;;1.60;;
29568;SDS011;16501;51.462;14.346;2022-09-03T03:49:37;3.92;;;1.98;;
29568;SDS011;16501;51.462;14.346;2022-09-03T03:52:02;2.78;;;1.67;;
29568;SDS011;16501;51.462;14.346;2022-09-03T03:54:28;10.68;;;2.20;;
29568;SDS011;16501;51.462;14.346;2022-09-03T03:56:54;7.75;;;2.00;;
29568;SDS011;16501;51.462;14.346;2022-09-03T03:59:20;4.97;;;2.05;;
29568;SDS011;16501;51.462;14.346;2022-09-03T04:01:45;13.00;;;4.53;;
29568;SDS011;16501;51.462;14.346;2022-09-03T04:04:10;15.80;;;7.25;;
29568;SDS011;16501;51.462;14.346;2022-09-03T04:06:35;34.33;;;15.07;;
29568;SDS011;16501;51.462;14.346;2022-09-03T04:09:01;31.42;;;13.73;;
29568;SDS011;16501;51.462;14.346;2022-09-03T04:11:26;16.25;;;8.88;;
29568;SDS011;16501;51.462;14.346;2022-09-03T04:13:51;8.52;;;4.80;;
29568;SDS011;16501;51.462;14.346;2022-09-03T04:16:18;5.40;;;3.90;;
29568;SDS011;16501;51.462;14.346;2022-09-03T04:18:46;3.60;;;2.42;;
29568;SDS011;16501;51.462;14.346;2022-09-03T04:21:14;10.02;;;3.17;;
29568;SDS011;16501;51.462;14.346;2022-09-03T04:23:44;10.88;;;2.70;;
29568;SDS011;16501;51.462;14.346;2022-09-03T04:26:11;4.22;;;2.38;;
29568;SDS011;16501;51.462;14.346;2022-09-03T04:28:38;6.78;;;2.15;;
29568;SDS011;16501;51.462;14.346;2022-09-03T04:31:07;6.45;;;2.00;;
29568;SDS011;16501;51.462;14.346;2022-09-03T04:33:33;6.95;;;2.13;;
29568;SDS011;16501;51.462;14.346;2022-09-03T04:36:23;6.57;;;2.35;;
29568;SDS011;16501;51.462;14.346;2022-09-03T04:38:49;8.18;;;2.38;;
29568;SDS011;16501;51.462;14.346;2022-09-03T04:41:18;2.47;;;1.73;;
29568;SDS011;16501;51.462;14.346;2022-09-03T04:43:44;6.68;;;2.28;;
29568;SDS011;16501;51.462;14.346;2022-09-03T04:46:11;3.05;;;1.77;;
29568;SDS011;16501;51.462;14.346;2022-09-03T04:48:37;3.03;;;1.95;;
29568;SDS011;16501;51.462;14.346;2022-09-03T04:51:04;6.10;;;2.10;;
29568;SDS011;16501;51.462;14.346;2022-09-03T04:53:58;3.85;;;2.25;;
29568;SDS011;16501;51.462;14.346;2022-09-03T04:56:25;7.95;;;2.20;;
29568;SDS011;16501;51.462;14.346;2022-09-03T04:58:53;5.30;;;2.00;;
29568;SDS011;16501;51.462;14.346;2022-09-03T05:01:23;3.70;;;1.70;;
29568;SDS011;16501;51.462;14.346;2022-09-03T05:03:50;2.67;;;1.88;;
29568;SDS011;16501;51.462;14.346;2022-09-03T05:06:18;5.95;;;1.90;;
29568;SDS011;16501;51.462;14.346;2022-09-03T05:08:50;2.75;;;1.60;;
29568;SDS011;16501;51.462;14.346;2022-09-03T05:11:18;2.58;;;1.63;;
29568;SDS011;16501;51.462;14.346;2022-09-03T05:13:47;4.68;;;1.70;;
29568;SDS011;16501;51.462;14.346;2022-09-03T05:16:14;4.07;;;1.60;;
29568;SDS011;16501;51.462;14.346;2022-09-03T05:18:41;5.28;;;1.75;;
29568;SDS011;16501;51.462;14.346;2022-09-03T05:21:11;2.75;;;1.60;;
29568;SDS011;16501;51.462;14.346;2022-09-03T05:23:39;8.15;;;1.70;;
29568;SDS011;16501;51.462;14.346;2022-09-03T05:26:07;3.47;;;1.65;;
29568;SDS011;16501;51.462;14.346;2022-09-03T05:28:35;4.70;;;1.60;;
29568;SDS011;16501;51.462;14.346;2022-09-03T05:31:09;8.20;;;2.13;;
29568;SDS011;16501;51.462;14.346;2022-09-03T05:33:41;4.97;;;1.60;;
29568;SDS011;16501;51.462;14.346;2022-09-03T05:36:09;2.55;;;1.77;;
29568;SDS011;16501;51.462;14.346;2022-09-03T05:38:36;5.43;;;1.65;;
29568;SDS011;16501;51.462;14.346;2022-09-03T05:41:03;3.10;;;1.52;;
29568;SDS011;16501;51.462;14.346;2022-09-03T05:43:31;2.63;;;1.70;;
29568;SDS011;16501;51.462;14.346;2022-09-03T05:45:57;4.25;;;2.05;;
29568;SDS011;16501;51.462;14.346;2022-09-03T05:48:30;12.35;;;2.33;;
29568;SDS011;16501;51.462;14.346;2022-09-03T05:51:07;4.75;;;2.03;;
29568;SDS011;16501;51.462;14.346;2022-09-03T05:53:34;4.60;;;1.90;;
29568;SDS011;16501;51.462;14.346;2022-09-03T05:56:03;4.53;;;1.77;;
29568;SDS011;16501;51.462;14.346;2022-09-03T05:58:37;4.35;;;1.60;;
29568;SDS011;16501;51.462;14.346;2022-09-03T06:01:14;9.38;;;1.58;;
29568;SDS011;16501;51.462;14.346;2022-09-03T06:03:41;5.32;;;1.60;;
29568;SDS011;16501;51.462;14.346;2022-09-03T06:06:08;6.72;;;1.60;;
29568;SDS011;16501;51.462;14.346;2022-09-03T06:08:34;3.85;;;1.77;;
29568;SDS011;16501;51.462;14.346;2022-09-03T06:11:01;3.25;;;1.90;;
29568;SDS011;16501;51.462;14.346;2022-09-03T06:13:30;3.83;;;1.48;;
29568;SDS011;16501;51.462;14.346;2022-09-03T06:15:56;4.65;;;1.65;;
29568;SDS011;16501;51.462;14.346;2022-09-03T06:18:23;3.22;;;1.60;;
29568;SDS011;16501;51.462;14.346;2022-09-03T06:23:20;4.83;;;2.00;;
29568;SDS011;16501;51.462;14.346;2022-09-03T06:25:45;3.55;;;1.80;;
29568;SDS011;16501;51.462;14.346;2022-09-03T06:28:11;6.30;;;1.55;;
29568;SDS011;16501;51.462;14.346;2022-09-03T06:30:36;4.15;;;1.70;;
29568;SDS011;16501;51.462;14.346;2022-09-03T06:33:01;2.85;;;1.63;;
29568;SDS011;16501;51.462;14.346;2022-09-03T06:35:26;4.13;;;1.80;;
29568;SDS011;16501;51.462;14.346;2022-09-03T06:37:52;3.17;;;1.85;;
29568;SDS011;16501;51.462;14.346;2022-09-03T06:40:17;4.03;;;1.80;;
29568;SDS011;16501;51.462;14.346;2022-09-03T06:42:54;5.00;;;1.73;;
29568;SDS011;16501;51.462;14.346;2022-09-03T06:45:20;7.53;;;1.75;;
29568;SDS011;16501;51.462;14.346;2022-09-03T06:47:45;3.50;;;1.67;;
29568;SDS011;16501;51.462;14.346;2022-09-03T06:50:11;2.75;;;2.13;;
29568;SDS011;16501;51.462;14.346;2022-09-03T06:52:36;4.88;;;1.63;;
29568;SDS011;16501;51.462;14.346;2022-09-03T06:55:01;3.83;;;1.60;;
29568;SDS011;16501;51.462;14.346;2022-09-03T06:57:27;4.93;;;1.52;;
29568;SDS011;16501;51.462;14.346;2022-09-03T06:59:53;1.67;;;1.50;;
29568;SDS011;16501;51.462;14.346;2022-09-03T07:02:19;4.03;;;1.77;;
29568;SDS011;16501;51.462;14.346;2022-09-03T07:04:46;6.35;;;2.13;;
29568;SDS011;16501;51.462;14.346;2022-09-03T07:07:13;4.43;;;1.60;;
29568;SDS011;16501;51.462;14.346;2022-09-03T07:09:40;3.83;;;2.28;;
29568;SDS011;16501;51.462;14.346;2022-09-03T07:12:05;2.28;;;1.65;;
29568;SDS011;16501;51.462;14.346;2022-09-03T07:14:30;3.50;;;1.50;;
29568;SDS011;16501;51.462;14.346;2022-09-03T07:16:56;8.20;;;1.77;;
29568;SDS011;16501;51.462;14.346;2022-09-03T07:19:21;3.40;;;1.63;;
29568;SDS011;16501;51.462;14.346;2022-09-03T07:21:46;7.70;;;2.13;;
29568;SDS011;16501;51.462;14.346;2022-09-03T07:24:11;2.63;;;1.70;;
29568;SDS011;16501;51.462;14.346;2022-09-03T07:26:38;2.70;;;1.85;;
29568;SDS011;16501;51.462;14.346;2022-09-03T07:29:07;4.18;;;1.60;;
29568;SDS011;16501;51.462;14.346;2022-09-03T07:31:34;2.85;;;1.77;;
29568;SDS011;16501;51.462;14.346;2022-09-03T07:34:09;2.28;;;1.42;;
29568;SDS011;16501;51.462;14.346;2022-09-03T07:36:43;5.60;;;1.77;;
29568;SDS011;16501;51.462;14.346;2022-09-03T07:39:11;9.23;;;2.13;;
29568;SDS011;16501;51.462;14.346;2022-09-03T07:41:38;3.63;;;1.67;;
29568;SDS011;16501;51.462;14.346;2022-09-03T07:44:11;5.72;;;1.92;;
29568;SDS011;16501;51.462;14.346;2022-09-03T07:46:39;4.03;;;2.03;;
29568;SDS011;16501;51.462;14.346;2022-09-03T07:49:04;3.65;;;1.48;;
29568;SDS011;16501;51.462;14.346;2022-09-03T07:51:34;5.32;;;1.58;;
29568;SDS011;16501;51.462;14.346;2022-09-03T07:54:02;3.53;;;2.10;;
29568;SDS011;16501;51.462;14.346;2022-09-03T07:56:30;5.38;;;2.05;;
29568;SDS011;16501;51.462;14.346;2022-09-03T07:58:56;5.72;;;1.80;;
29568;SDS011;16501;51.462;14.346;2022-09-03T08:01:23;3.80;;;2.03;;
29568;SDS011;16501;51.462;14.346;2022-09-03T08:03:52;5.88;;;2.08;;
29568;SDS011;16501;51.462;14.346;2022-09-03T08:06:19;4.18;;;1.77;;
29568;SDS011;16501;51.462;14.346;2022-09-03T08:08:52;5.70;;;1.83;;
29568;SDS011;16501;51.462;14.346;2022-09-03T08:11:23;5.85;;;2.03;;
29568;SDS011;16501;51.462;14.346;2022-09-03T08:13:59;6.60;;;2.15;;
29568;SDS011;16501;51.462;14.346;2022-09-03T08:16:27;3.75;;;2.20;;
29568;SDS011;16501;51.462;14.346;2022-09-03T08:18:54;3.90;;;1.77;;
29568;SDS011;16501;51.462;14.346;2022-09-03T08:21:20;5.32;;;2.00;;
29568;SDS011;16501;51.462;14.346;2022-09-03T08:23:47;4.18;;;1.90;;
29568;SDS011;16501;51.462;14.346;2022-09-03T08:26:14;3.70;;;1.80;;
29568;SDS011;16501;51.462;14.346;2022-09-03T08:28:41;3.97;;;1.80;;
29568;SDS011;16501;51.462;14.346;2022-09-03T08:31:11;14.40;;;3.05;;
29568;SDS011;16501;51.462;14.346;2022-09-03T08:33:37;5.00;;;1.88;;
29568;SDS011;16501;51.462;14.346;2022-09-03T08:36:05;10.15;;;2.38;;
29568;SDS011;16501;51.462;14.346;2022-09-03T08:38:32;8.60;;;1.77;;
29568;SDS011;16501;51.462;14.346;2022-09-03T08:41:04;5.25;;;2.00;;
29568;SDS011;16501;51.462;14.346;2022-09-03T08:43:46;3.85;;;2.20;;
29568;SDS011;16501;51.462;14.346;2022-09-03T08:46:16;3.75;;;2.28;;
29568;SDS011;16501;51.462;14.346;2022-09-03T08:48:41;3.35;;;2.05;;
29568;SDS011;16501;51.462;14.346;2022-09-03T08:51:07;6.57;;;2.53;;
29568;SDS011;16501;51.462;14.346;2022-09-03T08:53:38;4.20;;;2.08;;
29568;SDS011;16501;51.462;14.346;2022-09-03T08:56:10;12.00;;;2.80;;
29568;SDS011;16501;51.462;14.346;2022-09-03T08:58:44;7.72;;;2.50;;
29568;SDS011;16501;51.462;14.346;2022-09-03T09:01:14;10.30;;;2.25;;
29568;SDS011;16501;51.462;14.346;2022-09-03T09:06:33;10.88;;;2.40;;
29568;SDS011;16501;51.462;14.346;2022-09-03T09:11:57;8.15;;;2.30;;
29568;SDS011;16501;51.462;14.346;2022-09-03T09:20:14;5.72;;;2.22;;
29568;SDS011;16501;51.462;14.346;2022-09-03T09:22:52;5.10;;;2.25;;
29568;SDS011;16501;51.462;14.346;2022-09-03T09:25:23;4.57;;;2.40;;
29568;SDS011;16501;51.462;14.346;2022-09-03T09:27:51;4.07;;;2.30;;
29568;SDS011;16501;51.462;14.346;2022-09-03T09:30:28;8.00;;;3.00;;
29568;SDS011;16501;51.462;14.346;2022-09-03T09:32:55;5.38;;;2.08;;
29568;SDS011;16501;51.462;14.346;2022-09-03T09:35:20;5.90;;;2.38;;
29568;SDS011;16501;51.462;14.346;2022-09-03T09:37:50;6.20;;;2.00;;
29568;SDS011;16501;51.462;14.346;2022-09-03T09:42:49;5.25;;;2.13;;
29568;SDS011;16501;51.462;14.346;2022-09-03T09:45:15;9.40;;;3.05;;
29568;SDS011;16501;51.462;14.346;2022-09-03T09:47:41;3.75;;;2.28;;
29568;SDS011;16501;51.462;14.346;2022-09-03T09:50:17;4.22;;;2.30;;
29568;SDS011;16501;51.462;14.346;2022-09-03T09:52:45;7.25;;;2.30;;
29568;SDS011;16501;51.462;14.346;2022-09-03T09:55:17;10.07;;;2.85;;
29568;SDS011;16501;51.462;14.346;2022-09-03T09:57:44;5.32;;;2.58;;
29568;SDS011;16501;51.462;14.346;2022-09-03T10:02:50;7.90;;;2.10;;
29568;SDS011;16501;51.462;14.346;2022-09-03T10:05:21;3.13;;;1.98;;
29568;SDS011;16501;51.462;14.346;2022-09-03T10:07:59;11.65;;;2.67;;
29568;SDS011;16501;51.462;14.346;2022-09-03T10:10:28;7.00;;;2.50;;
29568;SDS011;16501;51.462;14.346;2022-09-03T10:13:07;8.98;;;2.55;;
29568;SDS011;16501;51.462;14.346;2022-09-03T10:15:50;8.88;;;2.30;;
29568;SDS011;16501;51.462;14.346;2022-09-03T10:23:49;7.15;;;2.25;;
29568;SDS011;16501;51.462;14.346;2022-09-03T10:26:21;9.07;;;3.05;;
29568;SDS011;16501;51.462;14.346;2022-09-03T10:28:52;7.05;;;2.20;;
29568;SDS011;16501;51.462;14.346;2022-09-03T10:36:35;4.22;;;2.10;;
29568;SDS011;16501;51.462;14.346;2022-09-03T10:56:31;5.68;;;2.97;;
29568;SDS011;16501;51.462;14.346;2022-09-03T11:02:16;4.15;;;2.22;;
29568;SDS011;16501;51.462;14.346;2022-09-03T11:07:41;3.47;;;2.08;;
29568;SDS011;16501;51.462;14.346;2022-09-03T11:12:47;8.00;;;2.40;;
29568;SDS011;16501;51.462;14.346;2022-09-03T11:15:24;10.30;;;2.70;;
29568;SDS011;16501;51.462;14.346;2022-09-03T11:17:58;5.50;;;2.03;;
29568;SDS011;16501;51.462;14.346;2022-09-03T11:20:29;7.47;;;2.35;;
29568;SDS011;16501;51.462;14.346;2022-09-03T11:22:58;11.30;;;2.30;;
29568;SDS011;16501;51.462;14.346;2022-09-03T11:25:30;13.25;;;2.28;;
29568;SDS011;16501;51.462;14.346;2022-09-03T11:28:01;13.88;;;2.85;;
29568;SDS011;16501;51.462;14.346;2022-09-03T11:33:31;11.00;;;2.95;;
29568;SDS011;16501;51.462;14.346;2022-09-03T11:36:04;6.97;;;2.47;;
29568;SDS011;16501;51.462;14.346;2022-09-03T11:38:30;7.88;;;2.47;;
29568;SDS011;16501;51.462;14.346;2022-09-03T11:51:14;7.15;;;2.17;;
29568;SDS011;16501;51.462;14.346;2022-09-03T11:53:51;4.57;;;2.45;;
29568;SDS011;16501;51.462;14.346;2022-09-03T11:56:18;8.07;;;2.03;;
29568;SDS011;16501;51.462;14.346;2022-09-03T11:58:44;5.80;;;2.15;;
29568;SDS011;16501;51.462;14.346;2022-09-03T12:01:14;4.82;;;2.42;;
29568;SDS011;16501;51.462;14.346;2022-09-03T12:03:47;11.45;;;2.60;;
29568;SDS011;16501;51.462;14.346;2022-09-03T12:06:30;8.25;;;2.05;;
29568;SDS011;16501;51.462;14.346;2022-09-03T12:09:52;6.78;;;2.38;;
29568;SDS011;16501;51.462;14.346;2022-09-03T12:17:58;7.63;;;1.90;;
29568;SDS011;16501;51.462;14.346;2022-09-03T12:20:43;5.15;;;2.03;;
29568;SDS011;16501;51.462;14.346;2022-09-03T12:23:10;8.23;;;2.20;;
29568;SDS011;16501;51.462;14.346;2022-09-03T12:25:50;4.95;;;2.13;;
29568;SDS011;16501;51.462;14.346;2022-09-03T12:28:19;7.32;;;2.30;;
29568;SDS011;16501;51.462;14.346;2022-09-03T12:30:50;6.25;;;2.42;;
29568;SDS011;16501;51.462;14.346;2022-09-03T12:33:18;6.18;;;2.20;;
29568;SDS011;16501;51.462;14.346;2022-09-03T12:35:55;7.68;;;2.53;;
29568;SDS011;16501;51.462;14.346;2022-09-03T12:38:24;4.78;;;2.47;;
29568;SDS011;16501;51.462;14.346;2022-09-03T12:40:51;3.42;;;2.13;;
29568;SDS011;16501;51.462;14.346;2022-09-03T12:43:17;6.07;;;2.22;;
29568;SDS011;16501;51.462;14.346;2022-09-03T12:45:43;8.55;;;2.20;;
29568;SDS011;16501;51.462;14.346;2022-09-03T12:48:14;4.25;;;2.25;;
29568;SDS011;16501;51.462;14.346;2022-09-03T12:50:40;5.72;;;2.05;;
29568;SDS011;16501;51.462;14.346;2022-09-03T12:53:07;3.08;;;2.00;;
29568;SDS011;16501;51.462;14.346;2022-09-03T12:55:35;2.92;;;2.22;;
29568;SDS011;16501;51.462;14.346;2022-09-03T12:58:10;6.40;;;2.35;;
29568;SDS011;16501;51.462;14.346;2022-09-03T13:01:17;5.75;;;2.25;;
29568;SDS011;16501;51.462;14.346;2022-09-03T13:04:01;5.30;;;2.10;;
29568;SDS011;16501;51.462;14.346;2022-09-03T13:06:32;7.53;;;2.63;;
29568;SDS011;16501;51.462;14.346;2022-09-03T13:09:07;7.45;;;2.22;;
29568;SDS011;16501;51.462;14.346;2022-09-03T13:11:33;5.22;;;2.20;;
29568;SDS011;16501;51.462;14.346;2022-09-03T13:14:07;4.90;;;2.38;;
29568;SDS011;16501;51.462;14.346;2022-09-03T13:19:18;9.52;;;2.47;;
29568;SDS011;16501;51.462;14.346;2022-09-03T13:22:05;5.28;;;2.38;;
29568;SDS011;16501;51.462;14.346;2022-09-03T13:27:58;9.43;;;3.35;;
29568;SDS011;16501;51.462;14.346;2022-09-03T13:30:53;5.30;;;2.15;;
29568;SDS011;16501;51.462;14.346;2022-09-03T13:33:27;4.32;;;2.35;;
29568;SDS011;16501;51.462;14.346;2022-09-03T13:36:02;5.45;;;2.25;;
29568;SDS011;16501;51.462;14.346;2022-09-03T13:41:02;5.27;;;2.60;;
29568;SDS011;16501;51.462;14.346;2022-09-03T13:43:51;9.13;;;2.55;;
29568;SDS011;16501;51.462;14.346;2022-09-03T13:49:22;7.82;;;3.03;;
29568;SDS011;16501;51.462;14.346;2022-09-03T13:52:18;6.00;;;2.90;;
29568;SDS011;16501;51.462;14.346;2022-09-03T13:54:51;8.30;;;2.40;;
29568;SDS011;16501;51.462;14.346;2022-09-03T13:57:23;8.15;;;2.55;;
29568;SDS011;16501;51.462;14.346;2022-09-03T13:59:55;8.80;;;2.38;;
29568;SDS011;16501;51.462;14.346;2022-09-03T14:13:05;5.00;;;2.50;;
29568;SDS011;16501;51.462;14.346;2022-09-03T14:16:02;7.88;;;2.75;;
29568;SDS011;16501;51.462;14.346;2022-09-03T14:18:56;5.30;;;2.55;;
29568;SDS011;16501;51.462;14.346;2022-09-03T14:21:38;5.93;;;2.10;;
29568;SDS011;16501;51.462;14.346;2022-09-03T14:24:23;7.20;;;2.17;;
29568;SDS011;16501;51.462;14.346;2022-09-03T14:26:54;4.70;;;2.50;;
29568;SDS011;16501;51.462;14.346;2022-09-03T14:29:26;11.43;;;2.80;;
29568;SDS011;16501;51.462;14.346;2022-09-03T14:32:00;13.23;;;2.17;;
29568;SDS011;16501;51.462;14.346;2022-09-03T14:40:53;3.58;;;2.25;;
29568;SDS011;16501;51.462;14.346;2022-09-03T14:43:17;7.30;;;2.53;;
29568;SDS011;16501;51.462;14.346;2022-09-03T14:54:56;11.25;;;2.40;;
29568;SDS011;16501;51.462;14.346;2022-09-03T15:06:27;5.60;;;2.30;;
29568;SDS011;16501;51.462;14.346;2022-09-03T15:09:17;6.15;;;2.65;;
29568;SDS011;16501;51.462;14.346;2022-09-03T15:14:48;7.53;;;2.67;;
29568;SDS011;16501;51.462;14.346;2022-09-03T15:19:53;6.53;;;3.08;;
29568;SDS011;16501;51.462;14.346;2022-09-03T15:22:33;3.65;;;2.13;;
29568;SDS011;16501;51.462;14.346;2022-09-03T15:31:00;2.70;;;2.35;;
29568;SDS011;16501;51.462;14.346;2022-09-03T15:36:20;2.45;;;1.80;;
29568;SDS011;16501;51.462;14.346;2022-09-03T15:38:49;4.88;;;2.05;;
29568;SDS011;16501;51.462;14.346;2022-09-03T15:41:24;6.18;;;2.35;;
29568;SDS011;16501;51.462;14.346;2022-09-03T15:43:59;9.63;;;2.80;;
29568;SDS011;16501;51.462;14.346;2022-09-03T15:49:17;4.82;;;2.17;;
29568;SDS011;16501;51.462;14.346;2022-09-03T15:55:01;4.57;;;2.42;;
29568;SDS011;16501;51.462;14.346;2022-09-03T16:00:18;10.80;;;2.30;;
29568;SDS011;16501;51.462;14.346;2022-09-03T16:02:46;9.82;;;2.13;;
29568;SDS011;16501;51.462;14.346;2022-09-03T16:05:40;4.75;;;2.45;;
29568;SDS011;16501;51.462;14.346;2022-09-03T16:08:56;8.73;;;2.97;;
29568;SDS011;16501;51.462;14.346;2022-09-03T16:11:04;6.70;;;2.35;;
29568;SDS011;16501;51.462;14.346;2022-09-03T16:16:41;6.40;;;2.13;;
29568;SDS011;16501;51.462;14.346;2022-09-03T16:22:21;4.40;;;2.50;;
29568;SDS011;16501;51.462;14.346;2022-09-03T16:27:43;7.63;;;2.90;;
29568;SDS011;16501;51.462;14.346;2022-09-03T16:33:12;6.50;;;2.40;;
29568;SDS011;16501;51.462;14.346;2022-09-03T16:36:00;7.32;;;2.78;;
29568;SDS011;16501;51.462;14.346;2022-09-03T16:44:25;12.52;;;2.60;;
29568;SDS011;16501;51.462;14.346;2022-09-03T16:47:00;5.30;;;2.78;;
29568;SDS011;16501;51.462;14.346;2022-09-03T16:49:48;6.57;;;2.38;;
29568;SDS011;16501;51.462;14.346;2022-09-03T17:00:08;5.78;;;2.97;;
29568;SDS011;16501;51.462;14.346;2022-09-03T17:16:29;5.00;;;2.40;;
29568;SDS011;16501;51.462;14.346;2022-09-03T17:24:40;5.15;;;2.60;;
29568;SDS011;16501;51.462;14.346;2022-09-03T17:27:30;13.32;;;3.05;;
29568;SDS011;16501;51.462;14.346;2022-09-03T17:30:27;8.10;;;2.85;;
29568;SDS011;16501;51.462;14.346;2022-09-03T17:49:33;5.43;;;2.63;;
29568;SDS011;16501;51.462;14.346;2022-09-03T17:55:02;12.50;;;2.95;;
29568;SDS011;16501;51.462;14.346;2022-09-03T17:58:40;7.07;;;3.40;;
29568;SDS011;16501;51.462;14.346;2022-09-03T18:06:35;5.13;;;3.20;;
29568;SDS011;16501;51.462;14.346;2022-09-03T18:17:08;5.32;;;2.80;;
29568;SDS011;16501;51.462;14.346;2022-09-03T18:20:04;5.65;;;3.40;;
29568;SDS011;16501;51.462;14.346;2022-09-03T18:25:38;7.70;;;3.10;;
29568;SDS011;16501;51.462;14.346;2022-09-03T18:28:45;9.63;;;3.05;;
29568;SDS011;16501;51.462;14.346;2022-09-03T18:31:34;9.02;;;3.70;;
29568;SDS011;16501;51.462;14.346;2022-09-03T18:34:19;8.00;;;4.05;;
29568;SDS011;16501;51.462;14.346;2022-09-03T18:37:08;6.15;;;3.30;;
29568;SDS011;16501;51.462;14.346;2022-09-03T18:39:52;11.85;;;4.05;;
29568;SDS011;16501;51.462;14.346;2022-09-03T18:42:43;10.50;;;3.78;;
29568;SDS011;16501;51.462;14.346;2022-09-03T19:01:47;17.95;;;9.27;;
29568;SDS011;16501;51.462;14.346;2022-09-03T19:07:46;11.13;;;6.53;;
29568;SDS011;16501;51.462;14.346;2022-09-03T19:13:50;11.48;;;5.97;;
29568;SDS011;16501;51.462;14.346;2022-09-03T19:16:51;10.23;;;4.95;;
29568;SDS011;16501;51.462;14.346;2022-09-03T19:20:10;9.13;;;4.07;;
29568;SDS011;16501;51.462;14.346;2022-09-03T19:23:10;8.70;;;3.58;;
29568;SDS011;16501;51.462;14.346;2022-09-03T19:25:55;13.63;;;6.38;;
29568;SDS011;16501;51.462;14.346;2022-09-03T19:28:51;7.40;;;4.43;;
29568;SDS011;16501;51.462;14.346;2022-09-03T19:31:49;8.20;;;5.20;;
29568;SDS011;16501;51.462;14.346;2022-09-03T19:35:04;10.55;;;4.97;;
29568;SDS011;16501;51.462;14.346;2022-09-03T19:41:00;8.18;;;4.40;;
29568;SDS011;16501;51.462;14.346;2022-09-03T19:47:25;5.55;;;3.22;;
29568;SDS011;16501;51.462;14.346;2022-09-03T19:50:20;10.00;;;3.28;;
29568;SDS011;16501;51.462;14.346;2022-09-03T19:53:09;9.05;;;3.70;;
29568;SDS011;16501;51.462;14.346;2022-09-03T19:56:00;6.18;;;3.13;;
29568;SDS011;16501;51.462;14.346;2022-09-03T19:58:51;6.57;;;3.90;;
29568;SDS011;16501;51.462;14.346;2022-09-03T20:01:39;6.55;;;3.30;;
29568;SDS011;16501;51.462;14.346;2022-09-03T20:04:28;4.95;;;3.08;;